createdAt,value
2017-10-28T00:01:36.241Z,21.51
2017-10-28T00:04:03.439Z,21.49
2017-10-28T00:06:30.733Z,21.47
2017-10-28T00:08:57.926Z,21.47
2017-10-28T00:11:25.209Z,21.47
2017-10-28T00:13:52.397Z,21.44
2017-10-28T00:16:19.694Z,21.45
2017-10-28T00:18:46.867Z,21.44
2017-10-28T00:21:14.111Z,21.43
2017-10-28T00:23:41.337Z,21.42
2017-10-28T00:26:08.516Z,21.42
2017-10-28T00:28:35.718Z,21.40
2017-10-28T00:31:02.897Z,21.39
2017-10-28T00:33:30.087Z,21.38
2017-10-28T00:35:57.323Z,21.38
2017-10-28T00:38:24.478Z,21.37
2017-10-28T00:40:51.694Z,21.35
2017-10-28T00:43:18.883Z,21.34
2017-10-28T00:45:46.111Z,21.33
2017-10-28T00:48:13.265Z,21.31
2017-10-28T00:50:40.512Z,21.29
2017-10-28T00:53:07.685Z,21.28
2017-10-28T00:55:34.922Z,21.25
2017-10-28T00:58:02.077Z,21.26
2017-10-28T01:00:29.278Z,21.26
2017-10-28T01:02:56.497Z,21.25
2017-10-28T01:05:23.631Z,21.23
2017-10-28T01:07:50.804Z,21.21
2017-10-28T01:10:18.136Z,21.22
2017-10-28T01:12:45.304Z,21.21
2017-10-28T01:15:12.648Z,21.21
2017-10-28T01:17:39.844Z,21.20
2017-10-28T01:20:07.031Z,21.19
2017-10-28T01:22:34.285Z,21.18
2017-10-28T01:25:01.445Z,21.17
2017-10-28T01:27:29.225Z,21.12
2017-10-28T01:29:56.445Z,21.16
2017-10-28T01:32:23.658Z,21.14
2017-10-28T01:34:51.259Z,21.14
2017-10-28T01:37:18.447Z,21.13
2017-10-28T01:39:45.653Z,21.12
2017-10-28T01:42:12.830Z,21.12
2017-10-28T01:44:40.078Z,21.10
2017-10-28T01:47:07.289Z,21.09
2017-10-28T01:49:34.548Z,21.09
2017-10-28T01:52:01.793Z,21.08
2017-10-28T01:54:28.995Z,21.08
2017-10-28T01:56:56.219Z,21.08
2017-10-28T01:59:23.442Z,21.07
2017-10-28T02:01:50.678Z,21.06
2017-10-28T02:04:17.853Z,21.03
2017-10-28T02:06:45.064Z,21.04
2017-10-28T02:09:12.263Z,21.03
2017-10-28T02:11:39.731Z,21.02
2017-10-28T02:14:06.969Z,21.01
2017-10-28T02:16:34.178Z,21.01
2017-10-28T02:19:01.357Z,21.00
2017-10-28T02:21:28.573Z,20.99
2017-10-28T02:23:55.737Z,20.98
2017-10-28T02:26:22.990Z,20.97
2017-10-28T02:28:50.252Z,20.97
2017-10-28T02:31:17.514Z,20.97
2017-10-28T02:33:44.764Z,20.96
2017-10-28T02:36:12.037Z,20.96
2017-10-28T02:38:39.271Z,20.95
2017-10-28T02:41:06.540Z,20.94
2017-10-28T02:43:33.698Z,20.93
2017-10-28T02:46:00.927Z,20.93
2017-10-28T02:48:28.080Z,20.92
2017-10-28T02:50:55.305Z,20.91
2017-10-28T02:53:22.536Z,20.90
2017-10-28T02:55:49.728Z,20.90
2017-10-28T02:58:16.881Z,20.89
2017-10-28T03:00:44.149Z,20.88
2017-10-28T03:03:11.353Z,20.87
2017-10-28T03:05:38.553Z,20.87
2017-10-28T03:08:05.791Z,20.87
2017-10-28T03:10:33.068Z,20.85
2017-10-28T03:13:00.456Z,20.84
2017-10-28T03:15:27.640Z,20.83
2017-10-28T03:17:54.841Z,20.83
2017-10-28T03:20:21.998Z,20.81
2017-10-28T03:22:49.184Z,20.81
2017-10-28T03:25:16.404Z,20.81
2017-10-28T03:27:43.573Z,20.81
2017-10-28T03:30:10.737Z,20.80
2017-10-28T03:32:37.985Z,20.79
2017-10-28T03:35:05.152Z,20.78
2017-10-28T03:37:32.358Z,20.78
2017-10-28T03:39:59.530Z,20.78
2017-10-28T03:42:26.702Z,20.77
2017-10-28T03:44:53.899Z,20.77
2017-10-28T03:47:21.118Z,20.73
2017-10-28T03:49:48.570Z,20.75
2017-10-28T03:52:15.814Z,20.75
2017-10-28T03:54:42.979Z,20.75
2017-10-28T03:57:10.388Z,20.74
2017-10-28T03:59:39.141Z,20.73
2017-10-28T04:02:06.562Z,20.73
2017-10-28T04:04:33.731Z,20.72
2017-10-28T04:07:00.989Z,20.71
2017-10-28T04:09:28.162Z,20.71
2017-10-28T04:11:55.352Z,20.70
2017-10-28T04:14:22.551Z,20.70
2017-10-28T04:16:49.808Z,20.69
2017-10-28T04:19:17.010Z,20.69
2017-10-28T04:21:44.230Z,20.68
2017-10-28T04:24:11.453Z,20.68
2017-10-28T04:26:38.631Z,20.67
2017-10-28T04:29:05.876Z,20.67
2017-10-28T04:31:33.155Z,20.67
2017-10-28T04:34:00.352Z,20.67
2017-10-28T04:36:27.513Z,20.66
2017-10-28T04:38:54.738Z,20.64
2017-10-28T04:41:21.922Z,20.63
2017-10-28T04:43:49.075Z,20.64
2017-10-28T04:46:16.278Z,20.63
2017-10-28T04:48:43.451Z,20.63
2017-10-28T04:51:10.647Z,20.62
2017-10-28T04:53:37.895Z,20.62
2017-10-28T04:56:05.078Z,20.63
2017-10-28T04:58:32.248Z,20.62
2017-10-28T05:00:59.455Z,20.61
2017-10-28T05:03:27.769Z,20.61
2017-10-28T05:05:54.949Z,20.60
2017-10-28T05:08:22.129Z,20.61
2017-10-28T05:10:49.325Z,20.59
2017-10-28T05:13:16.488Z,20.59
2017-10-28T05:15:43.650Z,20.58
2017-10-28T05:18:10.883Z,20.59
2017-10-28T05:20:38.057Z,20.57
2017-10-28T05:23:05.207Z,20.57
2017-10-28T05:25:32.424Z,20.57
2017-10-28T05:27:59.620Z,20.57
2017-10-28T05:30:26.913Z,20.56
2017-10-28T05:32:54.124Z,20.56
2017-10-28T05:35:21.342Z,20.55
2017-10-28T05:37:48.645Z,20.55
2017-10-28T05:40:15.878Z,20.55
2017-10-28T05:42:43.078Z,20.54
2017-10-28T05:45:10.247Z,20.54
2017-10-28T05:47:37.412Z,20.54
2017-10-28T05:50:04.635Z,20.53
2017-10-28T05:52:32.071Z,20.54
2017-10-28T05:54:59.309Z,20.56
2017-10-28T05:57:26.530Z,20.60
2017-10-28T05:59:53.696Z,20.65
2017-10-28T06:02:21.107Z,20.69
2017-10-28T06:04:48.312Z,20.75
2017-10-28T06:07:15.519Z,20.80
2017-10-28T06:09:42.773Z,20.84
2017-10-28T06:12:36.336Z,20.88
2017-10-28T06:15:16.144Z,20.93
2017-10-28T06:17:53.792Z,20.92
2017-10-28T06:20:20.974Z,20.93
2017-10-28T06:22:48.155Z,20.90
2017-10-28T06:25:35.673Z,20.88
2017-10-28T06:28:02.901Z,20.86
2017-10-28T06:30:30.083Z,20.83
2017-10-28T06:36:09.944Z,20.80
2017-10-28T06:38:37.160Z,20.78
2017-10-28T06:41:04.326Z,20.76
2017-10-28T06:43:31.540Z,20.74
2017-10-28T06:45:58.794Z,20.74
2017-10-28T06:48:26.023Z,20.72
2017-10-28T06:50:56.624Z,20.70
2017-10-28T06:53:23.844Z,20.69
2017-10-28T06:55:51.026Z,20.68
2017-10-28T06:58:18.195Z,20.67
2017-10-28T07:00:45.489Z,20.66
2017-10-28T07:03:14.200Z,20.65
2017-10-28T07:05:42.554Z,20.65
2017-10-28T07:11:20.740Z,20.63
2017-10-28T07:13:55.123Z,20.62
2017-10-28T07:16:22.366Z,20.62
2017-10-28T07:18:49.602Z,20.62
2017-10-28T07:21:17.034Z,20.60
2017-10-28T07:23:44.472Z,20.60
2017-10-28T07:26:11.689Z,20.60
2017-10-28T07:28:38.885Z,20.59
2017-10-28T07:31:06.111Z,20.59
2017-10-28T07:33:34.307Z,20.59
2017-10-28T07:36:01.522Z,20.59
2017-10-28T07:38:28.679Z,20.59
2017-10-28T07:40:55.863Z,20.59
2017-10-28T07:43:23.102Z,20.59
2017-10-28T07:45:50.247Z,20.59
2017-10-28T07:48:17.471Z,20.59
2017-10-28T07:50:54.612Z,20.59
2017-10-28T07:53:21.834Z,20.58
2017-10-28T07:56:12.342Z,20.58
2017-10-28T07:58:39.535Z,20.58
2017-10-28T08:01:06.761Z,20.57
2017-10-28T08:03:33.911Z,20.58
2017-10-28T08:06:01.147Z,20.57
2017-10-28T08:08:28.338Z,20.57
2017-10-28T08:10:55.573Z,20.57
2017-10-28T08:13:31.418Z,20.56
2017-10-28T08:16:15.018Z,20.56
2017-10-28T08:18:50.860Z,20.55
2017-10-28T08:21:18.063Z,20.55
2017-10-28T08:23:45.214Z,20.54
2017-10-28T08:26:12.376Z,20.53
2017-10-28T08:28:39.610Z,20.53
2017-10-28T08:31:06.827Z,20.53
2017-10-28T08:33:33.963Z,20.54
2017-10-28T08:36:08.239Z,20.54
2017-10-28T08:38:35.400Z,20.54
2017-10-28T08:41:02.605Z,20.54
2017-10-28T08:46:19.423Z,20.54
2017-10-28T08:48:46.595Z,20.53
2017-10-28T08:51:13.839Z,20.52
2017-10-28T08:53:41.077Z,20.52
2017-10-28T08:56:25.976Z,20.52
2017-10-28T08:59:00.796Z,20.53
2017-10-28T09:01:28.089Z,20.52
2017-10-28T09:03:55.296Z,20.52
2017-10-28T09:06:22.480Z,20.53
2017-10-28T09:08:49.655Z,20.53
2017-10-28T09:11:16.831Z,20.54
2017-10-28T09:13:44.068Z,20.54
2017-10-28T09:16:11.227Z,20.54
2017-10-28T09:18:38.448Z,20.54
2017-10-28T09:21:21.369Z,20.53
2017-10-28T09:23:48.644Z,20.54
2017-10-28T09:26:15.830Z,20.54
2017-10-28T09:28:43.017Z,20.54
2017-10-28T09:31:10.320Z,20.54
2017-10-28T09:33:37.554Z,20.54
2017-10-28T09:36:04.768Z,20.54
2017-10-28T09:38:32.201Z,20.55
2017-10-28T09:40:59.418Z,20.55
2017-10-28T09:43:26.592Z,20.55
2017-10-28T09:46:06.357Z,20.55
2017-10-28T09:48:33.559Z,20.56
2017-10-28T09:51:03.929Z,20.56
2017-10-28T09:53:31.168Z,20.56
2017-10-28T09:55:58.357Z,20.57
2017-10-28T09:58:25.528Z,20.57
2017-10-28T10:00:52.711Z,20.56
2017-10-28T10:03:19.942Z,20.57
2017-10-28T10:05:47.385Z,20.57
2017-10-28T10:08:14.799Z,20.57
2017-10-28T10:10:42.093Z,20.57
2017-10-28T10:13:09.301Z,20.57
2017-10-28T10:15:36.494Z,20.57
2017-10-28T10:18:03.693Z,20.57
2017-10-28T10:20:30.855Z,20.57
2017-10-28T10:22:58.059Z,20.58
2017-10-28T10:25:32.929Z,20.58
2017-10-28T10:28:08.184Z,20.56
2017-10-28T10:33:38.728Z,20.58
2017-10-28T10:36:05.919Z,20.59
2017-10-28T10:38:33.129Z,20.59
2017-10-28T10:41:00.362Z,20.58
2017-10-28T10:46:23.022Z,20.59
2017-10-28T10:48:50.210Z,20.60
2017-10-28T10:51:17.517Z,20.60
2017-10-28T10:54:08.541Z,20.60
2017-10-28T10:56:35.839Z,20.60
2017-10-28T10:59:03.063Z,20.60
2017-10-28T11:01:30.233Z,20.60
2017-10-28T11:03:57.462Z,20.61
2017-10-28T11:09:16.949Z,20.60
2017-10-28T11:11:44.174Z,20.61
2017-10-28T11:14:11.387Z,20.62
2017-10-28T11:16:38.583Z,20.63
2017-10-28T11:19:05.785Z,20.66
2017-10-28T11:21:32.993Z,20.70
2017-10-28T11:26:35.121Z,20.81
2017-10-28T11:29:02.360Z,20.87
2017-10-28T11:31:29.551Z,20.93
2017-10-28T11:33:56.712Z,20.98
2017-10-28T11:36:23.921Z,21.04
2017-10-28T11:38:51.121Z,21.10
2017-10-28T11:41:27.936Z,21.16
2017-10-28T11:43:55.155Z,21.19
2017-10-28T11:48:55.790Z,21.24
2017-10-28T11:51:22.984Z,21.27
2017-10-28T11:53:50.212Z,21.30
2017-10-28T11:56:17.450Z,21.32
2017-10-28T11:58:44.644Z,21.33
2017-10-28T12:01:11.854Z,21.36
2017-10-28T12:03:39.065Z,21.38
2017-10-28T12:06:06.250Z,21.41
2017-10-28T12:08:33.457Z,21.43
2017-10-28T12:11:00.641Z,21.44
2017-10-28T12:13:27.896Z,21.45
2017-10-28T12:16:08.202Z,21.40
2017-10-28T12:18:43.703Z,21.47
2017-10-28T12:21:21.855Z,21.49
2017-10-28T12:23:49.059Z,21.50
2017-10-28T12:26:17.756Z,21.50
2017-10-28T12:28:45.080Z,21.53
2017-10-28T12:31:12.261Z,21.54
2017-10-28T12:33:39.420Z,21.56
2017-10-28T12:36:18.947Z,21.57
2017-10-28T12:38:49.524Z,21.57
2017-10-28T12:41:16.735Z,21.59
2017-10-28T12:43:43.896Z,21.59
2017-10-28T12:46:11.148Z,21.60
2017-10-28T12:48:38.352Z,21.62
2017-10-28T12:51:05.578Z,21.63
2017-10-28T12:53:32.763Z,21.64
2017-10-28T12:56:00.017Z,21.66
2017-10-28T12:58:27.261Z,21.68
2017-10-28T13:00:54.429Z,21.68
2017-10-28T13:03:21.658Z,21.65
2017-10-28T13:05:55.789Z,21.69
2017-10-28T13:08:23.014Z,21.70
2017-10-28T13:10:50.272Z,21.71
2017-10-28T13:13:30.299Z,21.72
2017-10-28T13:15:57.559Z,21.74
2017-10-28T13:18:24.719Z,21.74
2017-10-28T13:20:51.920Z,21.74
2017-10-28T13:23:19.134Z,21.74
2017-10-28T13:25:46.304Z,21.74
2017-10-28T13:28:13.645Z,21.75
2017-10-28T13:30:41.438Z,21.75
2017-10-28T13:33:08.654Z,21.75
2017-10-28T13:35:35.832Z,21.76
2017-10-28T13:38:02.982Z,21.76
2017-10-28T13:40:30.195Z,21.77
2017-10-28T13:42:57.371Z,21.77
2017-10-28T13:45:24.604Z,21.77
2017-10-28T13:47:59.136Z,21.78
2017-10-28T13:50:26.393Z,21.77
2017-10-28T13:52:53.606Z,21.78
2017-10-28T13:55:20.782Z,21.79
2017-10-28T13:57:47.976Z,21.79
2017-10-28T14:00:15.223Z,21.79
2017-10-28T14:02:42.472Z,21.79
2017-10-28T14:05:09.656Z,21.79
2017-10-28T14:07:36.848Z,21.79
2017-10-28T14:10:04.087Z,21.80
2017-10-28T14:12:31.235Z,21.80
2017-10-28T14:17:51.169Z,21.80
2017-10-28T14:20:18.340Z,21.79
2017-10-28T14:22:45.552Z,21.79
2017-10-28T14:25:12.848Z,21.79
2017-10-28T14:27:40.085Z,21.79
2017-10-28T14:30:07.280Z,21.79
2017-10-28T14:32:34.498Z,21.78
2017-10-28T14:35:01.675Z,21.78
2017-10-28T14:37:28.893Z,21.77
2017-10-28T14:39:56.133Z,21.76
2017-10-28T14:42:23.382Z,21.78
2017-10-28T14:44:50.600Z,21.77
2017-10-28T14:47:25.561Z,21.77
2017-10-28T14:49:52.855Z,21.73
2017-10-28T14:55:21.340Z,21.75
2017-10-28T14:57:48.544Z,21.75
2017-10-28T15:00:15.706Z,21.74
2017-10-28T15:02:42.921Z,21.73
2017-10-28T15:05:10.087Z,21.73
2017-10-28T15:07:37.543Z,21.73
2017-10-28T15:10:04.723Z,21.71
2017-10-28T15:12:31.937Z,21.72
2017-10-28T15:14:59.126Z,21.72
2017-10-28T15:17:36.959Z,21.72
2017-10-28T15:20:04.121Z,21.71
2017-10-28T15:22:31.365Z,21.72
2017-10-28T15:24:58.588Z,21.71
2017-10-28T15:27:25.829Z,21.71
2017-10-28T15:29:56.780Z,21.70
2017-10-28T15:32:26.273Z,21.69
2017-10-28T15:34:53.604Z,21.69
2017-10-28T15:37:20.863Z,21.69
2017-10-28T15:39:48.730Z,21.69
2017-10-28T15:42:15.964Z,21.68
2017-10-28T15:44:43.150Z,21.68
2017-10-28T15:47:22.954Z,21.66
2017-10-28T15:50:02.231Z,21.67
2017-10-28T15:52:29.479Z,21.66
2017-10-28T15:54:56.702Z,21.64
2017-10-28T16:00:03.017Z,21.64
2017-10-28T16:02:30.192Z,21.62
2017-10-28T16:04:57.405Z,21.63
2017-10-28T16:07:24.678Z,21.64
2017-10-28T16:09:51.877Z,21.61
2017-10-28T16:12:19.112Z,21.61
2017-10-28T16:14:46.332Z,21.61
2017-10-28T16:17:27.938Z,21.61
2017-10-28T16:19:55.152Z,21.60
2017-10-28T16:22:22.292Z,21.59
2017-10-28T16:24:49.517Z,21.58
2017-10-28T16:27:16.723Z,21.58
2017-10-28T16:29:56.653Z,21.56
2017-10-28T16:32:23.860Z,21.57
2017-10-28T16:34:51.056Z,21.56
2017-10-28T16:37:18.307Z,21.56
2017-10-28T16:39:45.508Z,21.56
2017-10-28T16:42:12.736Z,21.55
2017-10-28T16:44:39.996Z,21.55
2017-10-28T16:47:07.183Z,21.54
2017-10-28T16:49:34.339Z,21.53
2017-10-28T16:52:18.028Z,21.53
2017-10-28T16:54:45.243Z,21.53
2017-10-28T16:57:12.442Z,21.53
2017-10-28T16:59:52.161Z,21.52
2017-10-28T17:02:19.381Z,21.51
2017-10-28T17:04:46.584Z,21.50
2017-10-28T17:09:50.384Z,21.49
2017-10-28T17:12:17.720Z,21.48
2017-10-28T17:14:44.904Z,21.48
2017-10-28T17:17:12.142Z,21.49
2017-10-28T17:19:52.256Z,21.47
2017-10-28T17:22:19.475Z,21.46
2017-10-28T17:24:46.705Z,21.46
2017-10-28T17:27:13.871Z,21.46
2017-10-28T17:29:41.118Z,21.46
2017-10-28T17:32:08.286Z,21.45
2017-10-28T17:34:35.446Z,21.45
2017-10-28T17:37:02.682Z,21.45
2017-10-28T17:39:29.865Z,21.45
2017-10-28T17:41:57.107Z,21.44
2017-10-28T17:44:24.522Z,21.44
2017-10-28T17:46:51.889Z,21.44
2017-10-28T17:49:19.096Z,21.43
2017-10-28T17:51:46.328Z,21.42
2017-10-28T17:54:13.511Z,21.42
2017-10-28T17:56:40.663Z,21.41
2017-10-28T17:59:07.872Z,21.42
2017-10-28T18:01:35.039Z,21.41
2017-10-28T18:04:02.487Z,21.41
2017-10-28T18:06:29.707Z,21.40
2017-10-28T18:08:56.907Z,21.40
2017-10-28T18:11:24.107Z,21.40
2017-10-28T18:13:51.264Z,21.40
2017-10-28T18:16:18.507Z,21.40
2017-10-28T18:18:45.740Z,21.38
2017-10-28T18:21:12.923Z,21.38
2017-10-28T18:23:40.120Z,21.37
2017-10-28T18:26:07.321Z,21.37
2017-10-28T18:28:34.478Z,21.37
2017-10-28T18:31:01.731Z,21.36
2017-10-28T18:33:28.931Z,21.35
2017-10-28T18:35:56.845Z,21.33
2017-10-28T18:38:24.083Z,21.33
2017-10-28T18:40:51.351Z,21.33
2017-10-28T18:43:18.546Z,21.33
2017-10-28T18:45:45.763Z,21.33
2017-10-28T18:48:12.922Z,21.32
2017-10-28T18:50:40.169Z,21.32
2017-10-28T18:53:07.344Z,21.31
2017-10-28T18:55:34.561Z,21.31
2017-10-28T18:58:01.741Z,21.30
2017-10-28T19:00:28.943Z,21.30
2017-10-28T19:02:56.151Z,21.29
2017-10-28T19:05:23.379Z,21.28
2017-10-28T19:07:50.536Z,21.28
2017-10-28T19:10:17.745Z,21.27
2017-10-28T19:12:44.903Z,21.25
2017-10-28T19:15:12.142Z,21.26
2017-10-28T19:17:39.341Z,21.25
2017-10-28T19:20:06.543Z,21.25
2017-10-28T19:22:33.770Z,21.26
2017-10-28T19:25:00.980Z,21.25
2017-10-28T19:27:28.164Z,21.25
2017-10-28T19:29:55.378Z,21.25
2017-10-28T19:32:22.524Z,21.24
2017-10-28T19:34:49.737Z,21.25
2017-10-28T19:37:16.948Z,21.24
2017-10-28T19:39:44.109Z,21.24
2017-10-28T19:42:11.342Z,21.24
2017-10-28T19:44:38.558Z,21.21
2017-10-28T19:47:05.771Z,21.17
2017-10-28T19:49:32.964Z,21.12
2017-10-28T19:52:00.320Z,21.07
2017-10-28T19:54:27.520Z,21.02
2017-10-28T19:56:54.725Z,20.97
2017-10-28T19:59:21.912Z,20.92
2017-10-28T20:01:49.120Z,20.88
2017-10-28T20:04:16.291Z,20.84
2017-10-28T20:06:43.520Z,20.81
2017-10-28T20:09:10.691Z,20.77
2017-10-28T20:11:37.876Z,20.73
2017-10-28T20:14:05.108Z,20.70
2017-10-28T20:16:32.336Z,20.68
2017-10-28T20:18:59.538Z,20.64
2017-10-28T20:21:26.776Z,20.62
2017-10-28T20:23:53.955Z,20.59
2017-10-28T20:26:21.100Z,20.56
2017-10-28T20:28:48.312Z,20.53
2017-10-28T20:31:15.506Z,20.52
2017-10-28T20:33:42.717Z,20.50
2017-10-28T20:36:09.913Z,20.48
2017-10-28T20:38:37.184Z,20.45
2017-10-28T20:41:04.376Z,20.44
2017-10-28T20:43:31.581Z,20.43
2017-10-28T20:45:58.832Z,20.41
2017-10-28T20:48:26.017Z,20.40
2017-10-28T20:50:53.234Z,20.38
2017-10-28T20:53:20.482Z,20.36
2017-10-28T20:55:47.728Z,20.35
2017-10-28T20:58:14.883Z,20.33
2017-10-28T21:00:42.070Z,20.32
2017-10-28T21:03:09.266Z,20.30
2017-10-28T21:05:36.462Z,20.30
2017-10-28T21:08:03.658Z,20.28
2017-10-28T21:10:30.868Z,20.28
2017-10-28T21:12:58.065Z,20.27
2017-10-28T21:15:25.243Z,20.25
2017-10-28T21:17:52.436Z,20.23
2017-10-28T21:20:19.613Z,20.22
2017-10-28T21:22:46.835Z,20.22
2017-10-28T21:25:14.016Z,20.21
2017-10-28T21:27:41.246Z,20.20
2017-10-28T21:30:08.480Z,20.20
2017-10-28T21:32:35.738Z,20.19
2017-10-28T21:35:02.923Z,20.17
2017-10-28T21:37:30.071Z,20.15
2017-10-28T21:39:57.329Z,20.16
2017-10-28T21:42:24.477Z,20.14
2017-10-28T21:44:51.672Z,20.14
2017-10-28T21:47:18.917Z,20.13
2017-10-28T21:49:46.148Z,20.13
2017-10-28T21:52:13.363Z,20.12
2017-10-28T21:54:40.554Z,20.11
2017-10-28T21:57:07.715Z,20.11
2017-10-28T21:59:34.927Z,20.10
2017-10-28T22:02:02.088Z,20.09
2017-10-28T22:04:29.298Z,20.09
2017-10-28T22:06:56.504Z,20.08
2017-10-28T22:09:23.684Z,20.07
2017-10-28T22:11:50.909Z,20.06
2017-10-28T22:14:18.061Z,20.05
2017-10-28T22:16:45.239Z,20.05
2017-10-28T22:19:12.451Z,20.04
2017-10-28T22:21:39.600Z,20.04
2017-10-28T22:24:06.831Z,20.03
2017-10-28T22:26:33.982Z,20.02
2017-10-28T22:29:01.128Z,20.01
2017-10-28T22:31:28.328Z,20.01
2017-10-28T22:33:55.536Z,20.01
2017-10-28T22:36:22.822Z,20.01
2017-10-28T22:38:49.998Z,20.00
2017-10-28T22:41:17.187Z,19.99
2017-10-28T22:43:44.459Z,19.99
2017-10-28T22:46:11.652Z,20.00
2017-10-28T22:48:38.900Z,20.00
2017-10-28T22:51:06.079Z,19.99
2017-10-28T22:53:33.284Z,20.00
2017-10-28T22:56:00.456Z,19.99
2017-10-28T22:58:27.603Z,19.98
2017-10-28T23:00:54.833Z,19.98
2017-10-28T23:03:22.046Z,19.98
2017-10-28T23:05:49.210Z,19.97
2017-10-28T23:08:16.405Z,19.97
2017-10-28T23:10:43.589Z,19.97
2017-10-28T23:13:10.786Z,19.97
2017-10-28T23:15:37.947Z,19.97
2017-10-28T23:18:05.586Z,19.96
2017-10-28T23:20:32.786Z,19.96
2017-10-28T23:22:59.991Z,19.96
2017-10-28T23:25:27.178Z,19.95
2017-10-28T23:27:54.372Z,19.94
2017-10-28T23:30:21.616Z,19.94
2017-10-28T23:32:48.786Z,19.94
2017-10-28T23:35:15.985Z,19.94
2017-10-28T23:37:43.192Z,19.94
2017-10-28T23:40:10.381Z,19.94
2017-10-28T23:42:37.555Z,19.93
2017-10-28T23:45:04.743Z,19.93
2017-10-28T23:47:31.947Z,19.93
2017-10-28T23:49:59.184Z,19.93
2017-10-28T23:52:26.355Z,19.92
2017-10-28T23:54:53.564Z,19.91
2017-10-28T23:57:20.799Z,19.91
2017-10-28T23:59:48.005Z,19.92
